sensor_id;sensor_type;location;lat;lon;timestamp;P1;durP1;ratioP1;P2;durP2;ratioP2
26157;SDS011;13910;44.782;10.282;2023-01-24T00:00:29;11.43;;;4.93;;
26157;SDS011;13910;44.782;10.282;2023-01-24T00:05:21;9.82;;;4.93;;
26157;SDS011;13910;44.782;10.282;2023-01-24T00:10:13;7.25;;;4.55;;
26157;SDS011;13910;44.782;10.282;2023-01-24T00:15:06;9.10;;;4.30;;
26157;SDS011;13910;44.782;10.282;2023-01-24T00:19:58;10.40;;;4.75;;
26157;SDS011;13910;44.782;10.282;2023-01-24T00:24:50;7.97;;;4.85;;
26157;SDS011;13910;44.782;10.282;2023-01-24T00:29:42;8.95;;;4.40;;
26157;SDS011;13910;44.782;10.282;2023-01-24T00:34:34;11.85;;;4.68;;
26157;SDS011;13910;44.782;10.282;2023-01-24T00:39:26;13.85;;;4.80;;
26157;SDS011;13910;44.782;10.282;2023-01-24T00:44:17;8.05;;;4.65;;
26157;SDS011;13910;44.782;10.282;2023-01-24T00:49:09;9.48;;;4.07;;
26157;SDS011;13910;44.782;10.282;2023-01-24T00:54:01;10.70;;;5.07;;
26157;SDS011;13910;44.782;10.282;2023-01-24T00:58:53;8.65;;;4.78;;
26157;SDS011;13910;44.782;10.282;2023-01-24T01:03:45;7.93;;;4.35;;
26157;SDS011;13910;44.782;10.282;2023-01-24T01:08:37;9.93;;;5.25;;
26157;SDS011;13910;44.782;10.282;2023-01-24T01:13:29;8.88;;;4.60;;
26157;SDS011;13910;44.782;10.282;2023-01-24T01:18:21;12.70;;;5.15;;
26157;SDS011;13910;44.782;10.282;2023-01-24T01:23:12;7.45;;;4.53;;
26157;SDS011;13910;44.782;10.282;2023-01-24T01:28:05;8.88;;;4.47;;
26157;SDS011;13910;44.782;10.282;2023-01-24T01:32:57;7.03;;;4.57;;
26157;SDS011;13910;44.782;10.282;2023-01-24T01:37:48;7.43;;;4.93;;
26157;SDS011;13910;44.782;10.282;2023-01-24T01:42:58;8.50;;;4.85;;
26157;SDS011;13910;44.782;10.282;2023-01-24T01:47:50;6.35;;;4.45;;
26157;SDS011;13910;44.782;10.282;2023-01-24T01:52:42;6.20;;;4.20;;
26157;SDS011;13910;44.782;10.282;2023-01-24T01:57:34;11.65;;;5.82;;
26157;SDS011;13910;44.782;10.282;2023-01-24T02:02:27;7.32;;;4.25;;
26157;SDS011;13910;44.782;10.282;2023-01-24T02:07:29;6.82;;;4.07;;
26157;SDS011;13910;44.782;10.282;2023-01-24T02:12:33;8.30;;;4.00;;
26157;SDS011;13910;44.782;10.282;2023-01-24T02:17:30;7.72;;;4.35;;
26157;SDS011;13910;44.782;10.282;2023-01-24T02:22:35;8.68;;;3.80;;
26157;SDS011;13910;44.782;10.282;2023-01-24T02:27:28;7.43;;;4.60;;
26157;SDS011;13910;44.782;10.282;2023-01-24T02:32:20;12.20;;;4.72;;
26157;SDS011;13910;44.782;10.282;2023-01-24T02:37:13;5.22;;;3.80;;
26157;SDS011;13910;44.782;10.282;2023-01-24T02:42:06;7.53;;;3.70;;
26157;SDS011;13910;44.782;10.282;2023-01-24T02:47:03;11.38;;;3.85;;
26157;SDS011;13910;44.782;10.282;2023-01-24T02:51:55;5.93;;;4.00;;
26157;SDS011;13910;44.782;10.282;2023-01-24T02:57:05;7.88;;;4.00;;
26157;SDS011;13910;44.782;10.282;2023-01-24T03:02:16;7.53;;;3.90;;
26157;SDS011;13910;44.782;10.282;2023-01-24T03:07:08;7.60;;;3.83;;
26157;SDS011;13910;44.782;10.282;2023-01-24T03:12:02;5.88;;;3.95;;
26157;SDS011;13910;44.782;10.282;2023-01-24T03:17:18;8.00;;;4.10;;
26157;SDS011;13910;44.782;10.282;2023-01-24T03:22:28;9.07;;;3.53;;
26157;SDS011;13910;44.782;10.282;2023-01-24T03:27:39;9.25;;;4.38;;
26157;SDS011;13910;44.782;10.282;2023-01-24T03:33:01;6.82;;;3.67;;
26157;SDS011;13910;44.782;10.282;2023-01-24T03:38:13;7.60;;;4.20;;
26157;SDS011;13910;44.782;10.282;2023-01-24T03:43:23;5.43;;;3.65;;
26157;SDS011;13910;44.782;10.282;2023-01-24T03:48:15;6.65;;;3.75;;
26157;SDS011;13910;44.782;10.282;2023-01-24T03:53:18;6.90;;;3.72;;
26157;SDS011;13910;44.782;10.282;2023-01-24T03:58:13;7.65;;;3.85;;
26157;SDS011;13910;44.782;10.282;2023-01-24T04:03:06;5.40;;;3.40;;
26157;SDS011;13910;44.782;10.282;2023-01-24T04:07:58;5.60;;;3.65;;
26157;SDS011;13910;44.782;10.282;2023-01-24T04:12:52;6.97;;;5.93;;
26157;SDS011;13910;44.782;10.282;2023-01-24T04:17:45;8.18;;;3.78;;
26157;SDS011;13910;44.782;10.282;2023-01-24T04:22:37;8.10;;;3.65;;
26157;SDS011;13910;44.782;10.282;2023-01-24T04:27:30;6.57;;;4.05;;
26157;SDS011;13910;44.782;10.282;2023-01-24T04:32:28;7.85;;;4.25;;
26157;SDS011;13910;44.782;10.282;2023-01-24T04:37:28;5.90;;;3.58;;
26157;SDS011;13910;44.782;10.282;2023-01-24T04:42:20;5.88;;;3.67;;
26157;SDS011;13910;44.782;10.282;2023-01-24T04:47:12;7.20;;;3.88;;
26157;SDS011;13910;44.782;10.282;2023-01-24T04:52:06;8.93;;;4.13;;
26157;SDS011;13910;44.782;10.282;2023-01-24T04:57:11;10.05;;;4.05;;
26157;SDS011;13910;44.782;10.282;2023-01-24T05:02:06;5.85;;;4.65;;
26157;SDS011;13910;44.782;10.282;2023-01-24T05:07:06;7.72;;;3.60;;
26157;SDS011;13910;44.782;10.282;2023-01-24T05:11:59;8.57;;;4.65;;
26157;SDS011;13910;44.782;10.282;2023-01-24T05:16:52;4.20;;;3.45;;
26157;SDS011;13910;44.782;10.282;2023-01-24T05:21:44;12.73;;;5.47;;
26157;SDS011;13910;44.782;10.282;2023-01-24T05:26:38;7.28;;;4.45;;
26157;SDS011;13910;44.782;10.282;2023-01-24T05:31:31;10.15;;;4.35;;
26157;SDS011;13910;44.782;10.282;2023-01-24T05:36:24;12.00;;;5.85;;
26157;SDS011;13910;44.782;10.282;2023-01-24T05:41:18;7.75;;;4.00;;
26157;SDS011;13910;44.782;10.282;2023-01-24T05:46:18;4.22;;;3.28;;
26157;SDS011;13910;44.782;10.282;2023-01-24T05:51:24;7.10;;;4.07;;
26157;SDS011;13910;44.782;10.282;2023-01-24T05:56:17;7.78;;;4.03;;
26157;SDS011;13910;44.782;10.282;2023-01-24T06:01:12;9.70;;;4.97;;
26157;SDS011;13910;44.782;10.282;2023-01-24T06:06:09;5.85;;;4.22;;
26157;SDS011;13910;44.782;10.282;2023-01-24T06:11:02;8.13;;;4.70;;
26157;SDS011;13910;44.782;10.282;2023-01-24T06:16:02;7.03;;;4.60;;
26157;SDS011;13910;44.782;10.282;2023-01-24T06:20:57;5.03;;;3.92;;
26157;SDS011;13910;44.782;10.282;2023-01-24T06:25:49;6.25;;;4.82;;
26157;SDS011;13910;44.782;10.282;2023-01-24T06:30:41;10.48;;;5.15;;
26157;SDS011;13910;44.782;10.282;2023-01-24T06:35:41;10.77;;;4.88;;
26157;SDS011;13910;44.782;10.282;2023-01-24T06:40:33;7.05;;;5.35;;
26157;SDS011;13910;44.782;10.282;2023-01-24T06:45:25;12.25;;;6.93;;
26157;SDS011;13910;44.782;10.282;2023-01-24T06:50:18;9.40;;;7.00;;
26157;SDS011;13910;44.782;10.282;2023-01-24T06:55:12;11.57;;;7.90;;
26157;SDS011;13910;44.782;10.282;2023-01-24T07:00:04;10.38;;;7.60;;
26157;SDS011;13910;44.782;10.282;2023-01-24T07:04:57;11.45;;;8.30;;
26157;SDS011;13910;44.782;10.282;2023-01-24T07:09:48;13.93;;;8.38;;
26157;SDS011;13910;44.782;10.282;2023-01-24T07:14:40;10.85;;;8.68;;
26157;SDS011;13910;44.782;10.282;2023-01-24T07:19:32;12.80;;;8.35;;
26157;SDS011;13910;44.782;10.282;2023-01-24T07:24:25;12.35;;;9.10;;
26157;SDS011;13910;44.782;10.282;2023-01-24T07:29:19;13.57;;;9.88;;
26157;SDS011;13910;44.782;10.282;2023-01-24T07:34:11;13.40;;;9.52;;
26157;SDS011;13910;44.782;10.282;2023-01-24T07:39:07;14.02;;;10.07;;
26157;SDS011;13910;44.782;10.282;2023-01-24T07:43:59;15.68;;;9.93;;
26157;SDS011;13910;44.782;10.282;2023-01-24T07:48:56;38.53;;;17.63;;
26157;SDS011;13910;44.782;10.282;2023-01-24T07:53:47;45.65;;;16.90;;
26157;SDS011;13910;44.782;10.282;2023-01-24T07:58:39;49.20;;;21.27;;
26157;SDS011;13910;44.782;10.282;2023-01-24T08:03:31;36.33;;;18.15;;
26157;SDS011;13910;44.782;10.282;2023-01-24T08:08:22;38.08;;;17.65;;
26157;SDS011;13910;44.782;10.282;2023-01-24T08:13:14;34.83;;;18.10;;
26157;SDS011;13910;44.782;10.282;2023-01-24T08:18:06;29.15;;;16.05;;
26157;SDS011;13910;44.782;10.282;2023-01-24T08:22:58;33.45;;;17.17;;
26157;SDS011;13910;44.782;10.282;2023-01-24T08:27:49;28.20;;;15.73;;
26157;SDS011;13910;44.782;10.282;2023-01-24T08:32:41;29.98;;;16.02;;
26157;SDS011;13910;44.782;10.282;2023-01-24T08:37:33;36.75;;;21.58;;
26157;SDS011;13910;44.782;10.282;2023-01-24T08:42:25;25.45;;;17.45;;
26157;SDS011;13910;44.782;10.282;2023-01-24T08:47:17;31.90;;;17.10;;
26157;SDS011;13910;44.782;10.282;2023-01-24T08:52:09;26.33;;;17.17;;
26157;SDS011;13910;44.782;10.282;2023-01-24T08:57:04;27.27;;;16.98;;
26157;SDS011;13910;44.782;10.282;2023-01-24T09:01:58;26.65;;;15.48;;
26157;SDS011;13910;44.782;10.282;2023-01-24T09:06:50;20.92;;;13.68;;
26157;SDS011;13910;44.782;10.282;2023-01-24T09:11:42;22.70;;;15.07;;
26157;SDS011;13910;44.782;10.282;2023-01-24T09:16:34;21.38;;;13.32;;
26157;SDS011;13910;44.782;10.282;2023-01-24T09:21:26;19.05;;;13.18;;
26157;SDS011;13910;44.782;10.282;2023-01-24T09:26:17;17.17;;;11.40;;
26157;SDS011;13910;44.782;10.282;2023-01-24T09:31:09;17.90;;;10.98;;
26157;SDS011;13910;44.782;10.282;2023-01-24T09:36:02;17.98;;;11.13;;
26157;SDS011;13910;44.782;10.282;2023-01-24T09:41:03;16.10;;;11.13;;
26157;SDS011;13910;44.782;10.282;2023-01-24T09:46:26;17.45;;;11.82;;
26157;SDS011;13910;44.782;10.282;2023-01-24T09:51:27;22.27;;;13.13;;
26157;SDS011;13910;44.782;10.282;2023-01-24T09:56:26;16.05;;;11.30;;
26157;SDS011;13910;44.782;10.282;2023-01-24T10:01:24;20.73;;;12.57;;
26157;SDS011;13910;44.782;10.282;2023-01-24T10:06:19;25.88;;;13.98;;
26157;SDS011;13910;44.782;10.282;2023-01-24T10:16:16;16.10;;;10.75;;
26157;SDS011;13910;44.782;10.282;2023-01-24T10:26:32;16.10;;;10.55;;
26157;SDS011;13910;44.782;10.282;2023-01-24T10:31:34;18.75;;;12.35;;
26157;SDS011;13910;44.782;10.282;2023-01-24T10:36:44;17.75;;;11.90;;
26157;SDS011;13910;44.782;10.282;2023-01-24T10:41:40;20.67;;;12.32;;
26157;SDS011;13910;44.782;10.282;2023-01-24T10:51:35;17.73;;;12.30;;
26157;SDS011;13910;44.782;10.282;2023-01-24T10:56:27;22.67;;;13.98;;
26157;SDS011;13910;44.782;10.282;2023-01-24T11:01:20;20.90;;;14.80;;
26157;SDS011;13910;44.782;10.282;2023-01-24T11:11:24;25.38;;;14.05;;
26157;SDS011;13910;44.782;10.282;2023-01-24T11:16:21;22.63;;;14.40;;
26157;SDS011;13910;44.782;10.282;2023-01-24T11:21:18;21.88;;;14.82;;
26157;SDS011;13910;44.782;10.282;2023-01-24T11:31:16;26.92;;;16.88;;
26157;SDS011;13910;44.782;10.282;2023-01-24T11:52:12;30.60;;;20.77;;
26157;SDS011;13910;44.782;10.282;2023-01-24T11:57:39;28.60;;;17.55;;
26157;SDS011;13910;44.782;10.282;2023-01-24T12:08:22;26.02;;;15.98;;
26157;SDS011;13910;44.782;10.282;2023-01-24T12:13:35;21.38;;;15.55;;
26157;SDS011;13910;44.782;10.282;2023-01-24T12:23:51;23.30;;;14.77;;
26157;SDS011;13910;44.782;10.282;2023-01-24T12:34:03;29.98;;;15.25;;
26157;SDS011;13910;44.782;10.282;2023-01-24T12:39:11;21.02;;;14.85;;
26157;SDS011;13910;44.782;10.282;2023-01-24T12:54:46;17.85;;;11.45;;
26157;SDS011;13910;44.782;10.282;2023-01-24T12:59:41;17.75;;;11.60;;
26157;SDS011;13910;44.782;10.282;2023-01-24T13:14:42;16.80;;;10.50;;
26157;SDS011;13910;44.782;10.282;2023-01-24T13:35:45;19.90;;;12.75;;
26157;SDS011;13910;44.782;10.282;2023-01-24T13:40:38;17.80;;;11.38;;
26157;SDS011;13910;44.782;10.282;2023-01-24T13:50:32;19.90;;;11.65;;
26157;SDS011;13910;44.782;10.282;2023-01-24T14:00:17;21.25;;;11.65;;
26157;SDS011;13910;44.782;10.282;2023-01-24T14:10:31;16.60;;;11.30;;
26157;SDS011;13910;44.782;10.282;2023-01-24T14:15:29;15.73;;;11.32;;
26157;SDS011;13910;44.782;10.282;2023-01-24T14:20:38;17.10;;;11.55;;
26157;SDS011;13910;44.782;10.282;2023-01-24T14:25:45;16.90;;;11.63;;
26157;SDS011;13910;44.782;10.282;2023-01-24T14:30:49;20.00;;;11.88;;
26157;SDS011;13910;44.782;10.282;2023-01-24T14:35:51;19.70;;;12.52;;
26157;SDS011;13910;44.782;10.282;2023-01-24T14:40:49;16.25;;;10.75;;
26157;SDS011;13910;44.782;10.282;2023-01-24T14:45:43;16.80;;;11.30;;
26157;SDS011;13910;44.782;10.282;2023-01-24T14:50:37;19.88;;;12.27;;
26157;SDS011;13910;44.782;10.282;2023-01-24T14:55:31;20.83;;;13.25;;
26157;SDS011;13910;44.782;10.282;2023-01-24T15:00:25;20.90;;;13.57;;
26157;SDS011;13910;44.782;10.282;2023-01-24T15:05:36;20.83;;;14.88;;
26157;SDS011;13910;44.782;10.282;2023-01-24T15:15:25;22.25;;;12.73;;
26157;SDS011;13910;44.782;10.282;2023-01-24T15:20:20;19.63;;;11.48;;
26157;SDS011;13910;44.782;10.282;2023-01-24T15:25:29;21.58;;;13.23;;
26157;SDS011;13910;44.782;10.282;2023-01-24T15:30:24;16.10;;;10.00;;
26157;SDS011;13910;44.782;10.282;2023-01-24T15:40:15;20.33;;;11.43;;
26157;SDS011;13910;44.782;10.282;2023-01-24T15:45:15;16.95;;;10.43;;
26157;SDS011;13910;44.782;10.282;2023-01-24T15:50:16;18.63;;;11.95;;
26157;SDS011;13910;44.782;10.282;2023-01-24T15:55:30;18.02;;;11.77;;
26157;SDS011;13910;44.782;10.282;2023-01-24T16:00:23;17.08;;;11.82;;
26157;SDS011;13910;44.782;10.282;2023-01-24T16:05:17;16.40;;;11.02;;
26157;SDS011;13910;44.782;10.282;2023-01-24T16:10:13;19.73;;;11.88;;
26157;SDS011;13910;44.782;10.282;2023-01-24T16:15:06;18.40;;;11.93;;
26157;SDS011;13910;44.782;10.282;2023-01-24T16:20:00;20.15;;;11.43;;
26157;SDS011;13910;44.782;10.282;2023-01-24T16:24:53;18.02;;;12.10;;
26157;SDS011;13910;44.782;10.282;2023-01-24T16:29:44;16.25;;;12.50;;
26157;SDS011;13910;44.782;10.282;2023-01-24T16:34:36;23.27;;;13.02;;
26157;SDS011;13910;44.782;10.282;2023-01-24T16:39:28;20.33;;;11.77;;
26157;SDS011;13910;44.782;10.282;2023-01-24T16:44:19;21.52;;;12.70;;
26157;SDS011;13910;44.782;10.282;2023-01-24T16:49:11;16.50;;;10.18;;
26157;SDS011;13910;44.782;10.282;2023-01-24T16:54:03;17.85;;;10.10;;
26157;SDS011;13910;44.782;10.282;2023-01-24T16:58:55;19.13;;;11.23;;
26157;SDS011;13910;44.782;10.282;2023-01-24T17:03:49;20.45;;;11.07;;
26157;SDS011;13910;44.782;10.282;2023-01-24T17:08:42;14.70;;;9.88;;
26157;SDS011;13910;44.782;10.282;2023-01-24T17:13:34;15.68;;;10.40;;
26157;SDS011;13910;44.782;10.282;2023-01-24T17:18:26;22.17;;;12.95;;
26157;SDS011;13910;44.782;10.282;2023-01-24T17:23:18;17.85;;;11.10;;
26157;SDS011;13910;44.782;10.282;2023-01-24T17:28:10;19.88;;;10.82;;
26157;SDS011;13910;44.782;10.282;2023-01-24T17:33:01;16.25;;;9.95;;
26157;SDS011;13910;44.782;10.282;2023-01-24T17:37:53;22.30;;;12.02;;
26157;SDS011;13910;44.782;10.282;2023-01-24T17:42:45;25.80;;;11.70;;
26157;SDS011;13910;44.782;10.282;2023-01-24T17:47:36;20.13;;;11.18;;
26157;SDS011;13910;44.782;10.282;2023-01-24T17:52:29;18.15;;;11.13;;
26157;SDS011;13910;44.782;10.282;2023-01-24T17:57:21;20.02;;;10.55;;
26157;SDS011;13910;44.782;10.282;2023-01-24T18:02:12;16.85;;;10.40;;
26157;SDS011;13910;44.782;10.282;2023-01-24T18:07:04;15.32;;;9.77;;
26157;SDS011;13910;44.782;10.282;2023-01-24T18:11:56;16.83;;;11.52;;
26157;SDS011;13910;44.782;10.282;2023-01-24T18:16:49;18.33;;;13.18;;
26157;SDS011;13910;44.782;10.282;2023-01-24T18:21:42;18.05;;;12.10;;
26157;SDS011;13910;44.782;10.282;2023-01-24T18:26:33;18.80;;;11.80;;
26157;SDS011;13910;44.782;10.282;2023-01-24T18:31:28;20.67;;;12.23;;
26157;SDS011;13910;44.782;10.282;2023-01-24T18:36:22;17.77;;;11.57;;
26157;SDS011;13910;44.782;10.282;2023-01-24T18:41:14;24.98;;;12.77;;
26157;SDS011;13910;44.782;10.282;2023-01-24T18:46:06;21.95;;;15.35;;
26157;SDS011;13910;44.782;10.282;2023-01-24T18:51:05;21.70;;;14.75;;
26157;SDS011;13910;44.782;10.282;2023-01-24T18:55:59;20.17;;;11.77;;
26157;SDS011;13910;44.782;10.282;2023-01-24T19:00:52;25.17;;;15.13;;
26157;SDS011;13910;44.782;10.282;2023-01-24T19:05:44;20.77;;;14.43;;
26157;SDS011;13910;44.782;10.282;2023-01-24T19:10:36;27.13;;;17.63;;
26157;SDS011;13910;44.782;10.282;2023-01-24T19:15:28;28.10;;;17.77;;
26157;SDS011;13910;44.782;10.282;2023-01-24T19:20:19;30.00;;;18.25;;
26157;SDS011;13910;44.782;10.282;2023-01-24T19:25:11;25.65;;;17.17;;
26157;SDS011;13910;44.782;10.282;2023-01-24T19:30:04;29.70;;;18.08;;
26157;SDS011;13910;44.782;10.282;2023-01-24T19:34:57;24.77;;;16.17;;
26157;SDS011;13910;44.782;10.282;2023-01-24T19:39:48;26.70;;;19.17;;
26157;SDS011;13910;44.782;10.282;2023-01-24T19:44:40;22.67;;;15.20;;
26157;SDS011;13910;44.782;10.282;2023-01-24T19:49:32;21.52;;;15.27;;
26157;SDS011;13910;44.782;10.282;2023-01-24T19:54:23;23.88;;;15.35;;
26157;SDS011;13910;44.782;10.282;2023-01-24T19:59:15;19.42;;;14.20;;
26157;SDS011;13910;44.782;10.282;2023-01-24T20:04:07;18.23;;;12.10;;
26157;SDS011;13910;44.782;10.282;2023-01-24T20:09:14;22.23;;;13.43;;
26157;SDS011;13910;44.782;10.282;2023-01-24T20:14:06;17.50;;;11.73;;
26157;SDS011;13910;44.782;10.282;2023-01-24T20:18:59;20.33;;;12.32;;
26157;SDS011;13910;44.782;10.282;2023-01-24T20:23:53;16.25;;;11.45;;
26157;SDS011;13910;44.782;10.282;2023-01-24T20:28:46;14.82;;;10.93;;
26157;SDS011;13910;44.782;10.282;2023-01-24T20:33:38;16.15;;;10.48;;
26157;SDS011;13910;44.782;10.282;2023-01-24T20:38:30;14.52;;;11.55;;
26157;SDS011;13910;44.782;10.282;2023-01-24T20:43:27;18.23;;;11.47;;
26157;SDS011;13910;44.782;10.282;2023-01-24T20:48:19;16.00;;;11.68;;
26157;SDS011;13910;44.782;10.282;2023-01-24T20:53:11;15.07;;;11.38;;
26157;SDS011;13910;44.782;10.282;2023-01-24T20:58:03;13.18;;;9.85;;
26157;SDS011;13910;44.782;10.282;2023-01-24T21:02:54;15.70;;;10.30;;
26157;SDS011;13910;44.782;10.282;2023-01-24T21:07:47;14.43;;;10.68;;
26157;SDS011;13910;44.782;10.282;2023-01-24T21:12:39;16.42;;;11.10;;
26157;SDS011;13910;44.782;10.282;2023-01-24T21:17:31;16.27;;;11.40;;
26157;SDS011;13910;44.782;10.282;2023-01-24T21:22:24;13.48;;;9.75;;
26157;SDS011;13910;44.782;10.282;2023-01-24T21:27:17;15.20;;;10.55;;
26157;SDS011;13910;44.782;10.282;2023-01-24T21:32:08;16.05;;;10.35;;
26157;SDS011;13910;44.782;10.282;2023-01-24T21:37:00;14.48;;;11.10;;
26157;SDS011;13910;44.782;10.282;2023-01-24T21:41:53;13.30;;;9.82;;
26157;SDS011;13910;44.782;10.282;2023-01-24T21:46:50;17.10;;;11.20;;
26157;SDS011;13910;44.782;10.282;2023-01-24T21:51:47;16.98;;;11.13;;
26157;SDS011;13910;44.782;10.282;2023-01-24T21:56:43;14.23;;;10.15;;
26157;SDS011;13910;44.782;10.282;2023-01-24T22:01:57;16.20;;;11.15;;
26157;SDS011;13910;44.782;10.282;2023-01-24T22:06:50;13.55;;;9.27;;
26157;SDS011;13910;44.782;10.282;2023-01-24T22:11:42;15.48;;;11.15;;
26157;SDS011;13910;44.782;10.282;2023-01-24T22:16:35;18.67;;;11.63;;
26157;SDS011;13910;44.782;10.282;2023-01-24T22:21:34;14.30;;;9.68;;
26157;SDS011;13910;44.782;10.282;2023-01-24T22:26:48;13.25;;;9.63;;
26157;SDS011;13910;44.782;10.282;2023-01-24T22:31:46;12.30;;;9.48;;
26157;SDS011;13910;44.782;10.282;2023-01-24T22:36:38;15.93;;;9.70;;
26157;SDS011;13910;44.782;10.282;2023-01-24T22:41:30;13.43;;;9.98;;
26157;SDS011;13910;44.782;10.282;2023-01-24T22:46:22;14.30;;;10.15;;
26157;SDS011;13910;44.782;10.282;2023-01-24T22:51:13;13.27;;;9.43;;
26157;SDS011;13910;44.782;10.282;2023-01-24T22:56:05;15.02;;;10.00;;
26157;SDS011;13910;44.782;10.282;2023-01-24T23:01:01;14.35;;;9.85;;
26157;SDS011;13910;44.782;10.282;2023-01-24T23:06:04;14.73;;;9.83;;
26157;SDS011;13910;44.782;10.282;2023-01-24T23:11:06;14.18;;;10.05;;
26157;SDS011;13910;44.782;10.282;2023-01-24T23:16:00;13.82;;;9.57;;
26157;SDS011;13910;44.782;10.282;2023-01-24T23:21:00;15.20;;;11.00;;
26157;SDS011;13910;44.782;10.282;2023-01-24T23:26:10;14.80;;;10.23;;
26157;SDS011;13910;44.782;10.282;2023-01-24T23:31:03;12.40;;;9.52;;
26157;SDS011;13910;44.782;10.282;2023-01-24T23:36:00;12.93;;;9.82;;
26157;SDS011;13910;44.782;10.282;2023-01-24T23:40:52;14.73;;;10.43;;
26157;SDS011;13910;44.782;10.282;2023-01-24T23:45:44;13.20;;;9.63;;
26157;SDS011;13910;44.782;10.282;2023-01-24T23:50:36;14.43;;;9.98;;
26157;SDS011;13910;44.782;10.282;2023-01-24T23:55:28;14.23;;;9.77;;
